NCAR-RAP Real-Time Weather Data

Output produced by METARs form (23 February 2020  02:12 UTC)
found at http://weather.rap.ucar.edu/surface/
 
KRDU 230151Z 00000KT 10SM CLR 04/M02 A3033 RMK AO2 SLP273 T00391022
KRDU 230051Z 00000KT 10SM CLR 06/M02 A3033 RMK AO2 SLP274 T00561022
KRDU 222351Z 21003KT 10SM FEW250 07/M03 A3033 RMK AO2 SLP275 T00721028 10122 20072 55002
KRDU 222251Z 24003KT 10SM FEW250 08/M03 A3033 RMK AO2 SLP273 T00831033
KRDU 222151Z 23009KT 10SM FEW250 11/M03 A3033 RMK AO2 SLP273 T01111033
KRDU 222051Z 28005KT 10SM FEW250 11/M04 A3034 RMK AO2 SLP276 T01111044 56024
KRDU 221951Z 23006KT 10SM FEW250 11/M04 A3035 RMK AO2 SLP280 T01111044
KRDU 221851Z 28004KT 10SM FEW250 10/M06 A3038 RMK AO2 SLP289 T01001061
KRDU 221751Z 21007KT 10SM FEW250 09/M04 A3041 RMK AO2 SLP301 I6000 T00891039 10094 21056 58021
KRDU 221651Z 21004KT 10SM FEW250 07/M03 A3045 RMK AO2 SLP312 T00721028
KRDU 221551Z 22004KT 10SM FEW250 06/M02 A3047 RMK AO2 SLP321 T00561017
KRDU 221451Z 23005KT 10SM FEW250 02/M02 A3048 RMK AO2 SLP324 T00221017 50010
KRDU 221351Z 23004KT 10SM CLR M01/M02 A3048 RMK AO2 SLP326 T10061022
KRDU 221251Z 00000KT 10SM CLR M03/M04 A3046 RMK AO2 SLP320 I1000 T10331039
KRDU 221151Z 00000KT 10SM CLR M05/M07 A3045 RMK AO2 SLP314 I1000 I6001 T10501067 11033 21056 53008
KRDU 221051Z 00000KT 10SM CLR M05/M06 A3044 RMK AO2 SLP312 T10501061
KRDU 220951Z 00000KT 10SM CLR M05/M06 A3042 RMK AO2 SLP305 T10501061
KRDU 220851Z 00000KT 10SM CLR M04/M06 A3042 RMK AO2 SLP305 T10441056 56011
KRDU 220751Z 00000KT 10SM CLR M04/M06 A3042 RMK AO2 SLP306 T10441056
KRDU 220651Z 00000KT 10SM CLR M04/M05 A3044 RMK AO2 SLP313 T10391050
KRDU 220551Z 00000KT 10SM CLR M03/M05 A3045 RMK AO2 SLP317 I6001 T10331050 10000 21039 58009
KRDU 220451Z 00000KT 10SM CLR M03/M05 A3047 RMK AO2 SLP322 T10331050 400221033
KRDU 220351Z 00000KT 10SM CLR M03/M05 A3048 RMK AO2 SLP327 I1000 T10331050
KRDU 220251Z 00000KT 10SM CLR M02/M04 A3048 RMK AO2 SLP327 T10221044 51001
KRDU 220151Z 00000KT 10SM CLR M02/M04 A3048 RMK AO2 SLP327 T10221039
KRDU 220051Z 08003KT 10SM CLR M01/M04 A3048 RMK AO2 SLP328 T10111044
KRDU 212351Z 00000KT 10SM CLR M01/M04 A3048 RMK AO2 SLP325 T10061039 10022 21006 53002
KRDU 212251Z 06004KT 10SM CLR 01/M04 A3047 RMK AO2 SLP321 T00061044
KRDU 212151Z 03005KT 10SM CLR 02/M06 A3046 RMK AO2 SLP320 T00221056
KRDU 212051Z VRB06KT 10SM FEW030 02/M05 A3047 RMK AO2 SLP322 T00221050 56015
KRDU 211951Z VRB06KT 10SM FEW030 02/M06 A3048 RMK AO2 SLP325 T00171056
KRDU 211851Z VRB06KT 10SM SCT028 00/M06 A3050 RMK AO2 SLP330 T00001056
KRDU 211751Z 02009KT 10SM SCT028 M01/M07 A3052 RMK AO2 SLP337 4/001 T10061067 11006 21028 50003
KRDU 211651Z 04007KT 10SM SCT026 M01/M06 A3052 RMK AO2 SLP340 T10061056
KRDU 211551Z 04011KT 10SM SCT026 M01/M06 A3052 RMK AO2 SLP339 T10111056
KRDU 211451Z 03012G21KT 10SM SCT025 M02/M06 A3051 RMK AO2 SLP334 T10221061 51031
KRDU 211351Z 04013G19KT 10SM FEW020 M02/M07 A3049 RMK AO2 SLP328 T10221067
KRDU 211251Z 03010G19KT 10SM FEW020 FEW050 M03/M06 A3045 RMK AO2 SLP316 T10281061
KRDU 211151Z 03011KT 10SM FEW018 FEW050 FEW120 M02/M06 A3041 RMK AO2 SLP303 4/002 70047 T10221061 10006 21022 53026
KRDU 211051Z 03013G19KT 10SM FEW015 FEW050 FEW120 M01/M04 A3039 RMK AO2 SLP293 T10111039
KRDU 210951Z 03011G17KT 10SM FEW015 FEW060 SCT120 M01/M03 A3036 RMK AO2 SLP283 T10061028
KRDU 210851Z 02009G17KT 10SM FEW008 SCT013 SCT020 00/M02 A3034 RMK AO2 SLP277 T00001017 53004
KRDU 210751Z 03008G15KT 10SM FEW008 BKN013 BKN020 01/M01 A3033 RMK AO2 SLP273 T00061011
KRDU 210651Z 03008KT 10SM SCT008 BKN013 BKN020 01/M01 A3033 RMK AO2 SLP271 T00061006
KRDU 210551Z 04006KT 10SM BKN007 BKN017 01/M01 A3032 RMK AO2 SNE46 SLP271 4/003 P0000 60013 T00061006 10006 20006 58004
KRDU 210451Z 03006KT 10SM -SN BKN008 OVC014 01/M01 A3033 RMK AO2 SLP273 P0000 T00061006 400610006
KRDU 210351Z 03006KT 3SM -SN BR BKN008 BKN024 OVC090 01/M01 A3034 RMK AO2 SLP275 CIG 008V012 P0001 T00061006
KRDU 210251Z 04005KT 3SM -SN BR BKN008 OVC012 01/00 A3034 RMK AO2 SLP275 P0003 60012 T00060000 51006
KRDU 210244Z 04006KT 1 1/2SM -SN BR BKN008 OVC012 01/00 A3034 RMK AO2 P0003 T00060000
KRDU 210218Z 03006KT 1SM -SN BR BKN008 OVC010 01/00 A3032 RMK AO2 P0002 T00060000 RVRNO